Time;durP1;ratioP1;P1;durP2;ratioP2;P2;SDS_P1;SDS_P2;PMS_P1;PMS_P2;Temp;Humidity;BMP_temperature;BMP_pressure;BME280_temperature;BME280_humidity;BME280_pressure;Samples;Min_cycle;Max_cycle;Signal;HPM_P1;HPM_P2
2023/09/30 06:20:16;;;;;;;8.18;4.10;;;12.30;99.90;;;;;;5068978;27;20414;-73
2023/09/30 06:22:45;;;;;;;16.77;7.20;;;12.00;99.90;;;;;;5066647;28;20048;-76
2023/09/30 06:25:12;;;;;;;16.23;6.20;;;12.00;99.90;;;;;;5069045;28;20132;-73
2023/09/30 06:27:38;;;;;;;17.60;6.13;;;12.00;99.90;;;;;;5068286;28;20492;-74
2023/09/30 06:30:05;;;;;;;20.08;7.43;;;12.00;99.90;;;;;;5063362;28;20135;-73
2023/09/30 06:32:30;;;;;;;17.92;8.15;;;12.00;99.90;;;;;;5068000;28;20096;-74
2023/09/30 06:34:56;;;;;;;16.52;6.68;;;12.00;99.90;;;;;;5066408;28;20056;-74
2023/09/30 06:37:22;;;;;;;21.77;7.57;;;12.00;99.90;;;;;;5068253;28;20519;-74
2023/09/30 06:39:50;;;;;;;14.25;7.45;;;12.10;99.90;;;;;;5068894;28;20044;-73
2023/09/30 06:42:16;;;;;;;17.00;6.70;;;12.10;99.90;;;;;;5050118;28;20060;-72
2023/09/30 06:44:42;;;;;;;16.30;6.85;;;12.10;99.90;;;;;;5067839;28;20033;-72
2023/09/30 06:47:12;;;;;;;9.68;5.47;;;12.10;99.90;;;;;;5071279;28;20044;-73
2023/09/30 06:49:38;;;;;;;16.50;6.47;;;12.10;99.90;;;;;;5053160;28;20064;-73
2023/09/30 06:52:04;;;;;;;15.32;6.25;;;12.20;99.90;;;;;;5091478;28;20129;-73
2023/09/30 06:54:31;;;;;;;15.10;6.45;;;12.20;99.90;;;;;;5061311;28;20136;-73
2023/09/30 06:56:57;;;;;;;15.80;5.78;;;12.20;99.90;;;;;;5067658;28;20467;-73
2023/09/30 06:59:24;;;;;;;17.80;6.85;;;12.20;99.90;;;;;;5067544;28;20132;-74
2023/09/30 07:01:50;;;;;;;15.95;6.75;;;12.30;99.90;;;;;;5067718;28;20045;-74
2023/09/30 07:04:16;;;;;;;12.77;6.07;;;12.30;99.90;;;;;;5064568;28;20052;-72
2023/09/30 07:06:42;;;;;;;17.65;7.20;;;12.30;99.90;;;;;;5067094;28;20174;-74
2023/09/30 07:09:09;;;;;;;16.05;6.20;;;12.40;99.90;;;;;;5066071;28;20049;-74
2023/09/30 07:11:35;;;;;;;16.35;6.80;;;12.30;99.90;;;;;;5067547;28;20523;-74
2023/09/30 07:14:01;;;;;;;18.98;8.10;;;12.50;99.90;;;;;;5067131;28;20091;-74
2023/09/30 07:16:27;;;;;;;10.88;5.82;;;12.50;99.90;;;;;;5064640;28;20512;-75
2023/09/30 07:18:52;;;;;;;20.40;8.00;;;12.50;99.90;;;;;;5065967;28;20060;-75
2023/09/30 07:21:18;;;;;;;14.65;6.45;;;12.60;99.90;;;;;;5067404;28;20037;-74
2023/09/30 07:23:44;;;;;;;18.10;7.20;;;12.70;99.90;;;;;;5066975;28;20045;-73
2023/09/30 07:26:12;;;;;;;21.45;8.23;;;12.70;99.90;;;;;;5052316;28;20056;-73
2023/09/30 07:28:38;;;;;;;16.38;7.43;;;12.70;99.90;;;;;;5062325;28;20044;-74
2023/09/30 07:31:03;;;;;;;12.20;5.90;;;12.70;99.90;;;;;;5044121;28;20251;-74
2023/09/30 07:33:30;;;;;;;15.88;7.22;;;12.80;99.90;;;;;;5050274;28;20369;-74
2023/09/30 07:35:55;;;;;;;14.98;8.35;;;12.80;99.90;;;;;;5047332;28;20076;-73
2023/09/30 07:38:22;;;;;;;18.33;7.22;;;12.90;99.90;;;;;;5036241;28;20076;-73
2023/09/30 07:40:48;;;;;;;12.23;6.22;;;13.00;99.90;;;;;;5052054;28;20067;-74
2023/09/30 07:43:14;;;;;;;18.77;7.68;;;13.00;99.90;;;;;;5053394;28;20075;-74
2023/09/30 07:45:40;;;;;;;9.40;5.00;;;13.00;99.90;;;;;;5034570;28;20495;-73
2023/09/30 07:48:09;;;;;;;17.25;6.85;;;13.00;99.90;;;;;;5052050;28;20538;-74
2023/09/30 07:50:35;;;;;;;19.98;7.88;;;13.10;99.90;;;;;;5070082;28;20052;-73
2023/09/30 07:53:01;;;;;;;17.25;8.93;;;13.10;99.90;;;;;;5053411;28;20041;-73
2023/09/30 07:55:26;;;;;;;23.95;9.43;;;13.20;99.90;;;;;;5051733;28;20044;-73
2023/09/30 07:57:52;;;;;;;17.08;8.45;;;13.20;99.90;;;;;;5068655;28;20102;-73
2023/09/30 08:00:21;;;;;;;16.35;7.68;;;13.20;99.90;;;;;;5052562;28;20033;-73
2023/09/30 08:02:47;;;;;;;20.50;9.40;;;13.30;99.90;;;;;;5054137;28;20488;-74
2023/09/30 08:05:13;;;;;;;15.70;8.13;;;13.40;99.90;;;;;;5047288;28;20059;-74
2023/09/30 08:07:38;;;;;;;14.10;6.63;;;13.40;99.90;;;;;;5042530;28;20041;-73
2023/09/30 08:10:06;;;;;;;17.38;7.57;;;13.50;99.90;;;;;;5034745;28;20558;-72
2023/09/30 08:12:33;;;;;;;16.63;8.55;;;13.50;99.90;;;;;;5050800;28;20053;-73
2023/09/30 08:14:58;;;;;;;19.88;6.93;;;13.50;99.90;;;;;;5049825;28;20388;-73
2023/09/30 08:17:24;;;;;;;17.55;7.93;;;13.60;99.90;;;;;;5050507;28;20190;-73
2023/09/30 08:19:51;;;;;;;20.55;7.47;;;13.60;99.90;;;;;;5029113;28;20401;-75
2023/09/30 08:22:18;;;;;;;20.13;9.55;;;13.70;99.90;;;;;;5032654;28;20096;-78
2023/09/30 08:24:47;;;;;;;18.23;7.60;;;13.80;99.90;;;;;;5046621;28;20500;-77
2023/09/30 08:27:13;;;;;;;16.42;8.02;;;13.80;99.90;;;;;;5051245;28;20049;-75
2023/09/30 08:29:39;;;;;;;12.05;6.60;;;13.90;99.90;;;;;;5051816;28;20124;-74
2023/09/30 08:32:05;;;;;;;21.50;7.38;;;13.90;99.90;;;;;;5051151;28;20174;-77
2023/09/30 08:34:30;;;;;;;20.40;7.85;;;14.00;99.90;;;;;;5053564;28;20041;-76
2023/09/30 08:36:57;;;;;;;19.30;6.93;;;14.10;99.90;;;;;;5041554;28;20057;-76
2023/09/30 08:39:24;;;;;;;20.13;7.03;;;14.10;99.90;;;;;;5051508;28;20175;-76
2023/09/30 08:41:50;;;;;;;15.25;6.47;;;14.20;99.90;;;;;;5035985;28;20514;-76
2023/09/30 08:44:16;;;;;;;24.15;7.18;;;14.20;99.90;;;;;;5035170;28;20049;-76
2023/09/30 08:46:43;;;;;;;11.73;5.82;;;14.30;99.90;;;;;;5032514;28;20046;-76
2023/09/30 08:49:11;;;;;;;13.18;6.07;;;14.30;99.90;;;;;;5032852;28;20046;-76
2023/09/30 08:51:36;;;;;;;15.05;6.53;;;14.40;99.90;;;;;;5066602;28;20055;-76
2023/09/30 08:54:03;;;;;;;14.38;6.45;;;14.50;99.90;;;;;;5050150;28;20045;-76
2023/09/30 08:56:32;;;;;;;13.90;5.72;;;14.50;99.90;;;;;;5032996;28;20049;-76
2023/09/30 08:59:02;;;;;;;14.75;6.18;;;14.60;99.90;;;;;;5045847;28;20047;-75
2023/09/30 09:01:29;;;;;;;14.50;5.97;;;14.70;99.90;;;;;;5052409;28;20045;-76
2023/09/30 09:03:55;;;;;;;12.82;5.25;;;14.70;99.90;;;;;;5048446;28;20061;-76
2023/09/30 09:06:22;;;;;;;16.45;5.68;;;14.80;99.90;;;;;;5037920;28;20053;-77
2023/09/30 09:08:48;;;;;;;23.90;6.32;;;14.90;99.90;;;;;;5052239;28;20068;-76
2023/09/30 09:11:14;;;;;;;13.43;5.60;;;14.90;99.90;;;;;;5035620;28;20045;-77
2023/09/30 09:13:53;;;;;;;11.70;5.65;;;15.10;99.90;;;;;;5052760;28;20048;-75
2023/09/30 09:16:19;;;;;;;15.20;4.75;;;15.20;99.90;;;;;;5050706;28;20447;-76
2023/09/30 09:18:47;;;;;;;11.68;4.03;;;15.30;99.90;;;;;;5052681;28;20064;-75
2023/09/30 09:21:14;;;;;;;11.90;4.07;;;15.40;99.90;;;;;;5051595;28;20496;-75
2023/09/30 09:23:45;;;;;;;13.35;4.28;;;15.60;99.90;;;;;;5052577;28;20053;-75
2023/09/30 09:26:27;;;;;;;17.48;4.18;;;15.70;99.90;;;;;;5048186;28;22277;-75
2023/09/30 09:29:00;;;;;;;12.15;4.00;;;15.80;99.90;;;;;;5043277;28;20570;-76
2023/09/30 09:31:28;;;;;;;13.80;3.72;;;16.00;99.90;;;;;;5036393;28;20057;-77
2023/09/30 09:33:57;;;;;;;8.43;3.45;;;16.10;99.90;;;;;;5036045;28;20087;-80
2023/09/30 09:36:41;;;;;;;12.73;3.78;;;16.30;99.90;;;;;;5045435;28;20103;-80
2023/09/30 09:39:07;;;;;;;10.05;3.45;;;16.40;99.90;;;;;;5040664;28;20103;-80
2023/09/30 09:41:50;;;;;;;13.93;3.33;;;16.50;99.90;;;;;;5052578;28;20048;-77
2023/09/30 09:44:19;;;;;;;13.38;3.35;;;16.60;99.90;;;;;;5050881;28;20380;-77
2023/09/30 09:46:47;;;;;;;10.73;3.22;;;16.70;99.90;;;;;;5049378;28;20045;-77
2023/09/30 09:49:15;;;;;;;12.32;3.05;;;16.80;99.90;;;;;;5033484;28;20033;-81
2023/09/30 09:51:44;;;;;;;11.35;3.40;;;16.90;99.90;;;;;;5051294;28;20055;-81
2023/09/30 09:54:11;;;;;;;12.30;2.85;;;17.10;99.90;;;;;;5046183;28;20057;-80
2023/09/30 09:56:39;;;;;;;12.63;3.08;;;17.20;99.90;;;;;;5005967;28;20281;-81
2023/09/30 09:59:06;;;;;;;10.13;3.20;;;17.30;99.90;;;;;;5051797;28;20086;-80
2023/09/30 10:01:35;;;;;;;12.10;3.70;;;17.50;99.90;;;;;;5052253;28;20097;-80
2023/09/30 10:04:02;;;;;;;10.82;2.22;;;17.60;99.90;;;;;;5051826;28;20045;-81
2023/09/30 10:06:28;;;;;;;12.55;2.50;;;17.70;99.90;;;;;;5042210;28;20052;-80
2023/09/30 10:08:57;;;;;;;7.93;2.25;;;17.80;99.90;;;;;;5039945;28;20495;-82
2023/09/30 10:11:25;;;;;;;11.65;3.08;;;18.10;99.90;;;;;;5052639;28;20092;-81
2023/09/30 10:14:03;;;;;;;8.63;2.03;;;18.10;99.90;;;;;;5031294;28;20088;-81
2023/09/30 10:16:36;;;;;;;9.18;2.55;;;18.10;99.90;;;;;;5051688;28;20127;-81
2023/09/30 10:19:17;;;;;;;10.10;1.90;;;18.10;99.90;;;;;;5048088;28;20148;-81
2023/09/30 10:22:18;;;;;;;7.65;1.70;;;18.00;99.90;;;;;;5038771;28;20045;-81
2023/09/30 10:24:45;;;;;;;11.27;1.88;;;17.90;99.90;;;;;;5031245;28;20136;-80
2023/09/30 10:27:31;;;;;;;9.73;2.40;;;17.80;99.90;;;;;;5047567;28;20124;-81
2023/09/30 10:29:59;;;;;;;11.57;2.08;;;17.80;99.90;;;;;;5047300;28;20048;-81
2023/09/30 10:32:50;;;;;;;10.82;2.00;;;17.80;99.90;;;;;;5051522;28;20045;-81
2023/09/30 10:35:17;;;;;;;10.55;2.15;;;17.80;99.90;;;;;;5051136;28;20055;-81
2023/09/30 10:37:44;;;;;;;10.75;2.15;;;17.90;99.90;;;;;;5050404;28;20046;-81
2023/09/30 10:40:29;;;;;;;10.13;1.75;;;18.00;99.90;;;;;;5043244;28;20111;-81
2023/09/30 10:42:56;;;;;;;8.80;2.03;;;18.10;99.90;;;;;;5050530;28;20501;-82
2023/09/30 10:45:42;;;;;;;11.85;2.13;;;18.40;99.90;;;;;;5033562;28;20063;-82
2023/09/30 10:48:33;;;;;;;10.13;2.00;;;18.60;99.90;;;;;;5045747;28;20462;-82
2023/09/30 10:51:01;;;;;;;8.00;1.70;;;18.80;99.90;;;;;;5051744;28;20045;-82
2023/09/30 10:53:28;;;;;;;11.57;2.25;;;18.90;99.90;;;;;;5041740;28;20133;-82
2023/09/30 10:55:58;;;;;;;13.13;2.70;;;19.10;99.90;;;;;;5023429;28;20045;-82
2023/09/30 10:58:40;;;;;;;6.40;2.17;;;19.20;99.90;;;;;;5027596;28;20501;-81
2023/09/30 11:01:05;;;;;;;8.50;1.95;;;19.30;99.90;;;;;;5040982;28;20053;-81
2023/09/30 11:03:31;;;;;;;11.82;1.70;;;19.50;99.90;;;;;;5051548;28;20131;-81
2023/09/30 11:05:59;;;;;;;9.60;1.30;;;19.70;99.90;;;;;;5053076;28;20152;-82
2023/09/30 11:08:33;;;;;;;9.00;1.65;;;19.70;99.90;;;;;;5053355;28;20091;-79
2023/09/30 11:11:00;;;;;;;5.38;1.48;;;19.80;99.90;;;;;;5054000;28;20049;-78
2023/09/30 11:13:34;;;;;;;8.73;1.77;;;19.80;99.90;;;;;;5037774;28;20045;-78
2023/09/30 11:16:04;;;;;;;9.95;1.85;;;19.80;99.90;;;;;;5054920;28;20091;-79
2023/09/30 11:18:31;;;;;;;8.57;1.50;;;19.80;99.90;;;;;;5048955;28;20053;-80
2023/09/30 11:21:12;;;;;;;5.70;1.60;;;19.90;99.90;;;;;;5050811;28;20052;-74
2023/09/30 11:23:41;;;;;;;8.27;1.42;;;20.00;99.90;;;;;;5046440;28;20053;-74
2023/09/30 11:26:08;;;;;;;6.68;1.33;;;20.20;99.90;;;;;;5055988;28;20060;-78
2023/09/30 11:28:39;;;;;;;7.10;1.58;;;20.40;99.90;;;;;;5038922;28;20049;-76
2023/09/30 11:31:11;;;;;;;6.53;1.50;;;20.40;99.90;;;;;;5057131;28;20120;-76
2023/09/30 11:33:56;;;;;;;10.55;1.70;;;20.50;99.90;;;;;;5055291;28;20057;-75
2023/09/30 11:36:26;;;;;;;7.03;2.08;;;20.50;99.90;;;;;;5054885;28;20076;-76
2023/09/30 11:38:55;;;;;;;9.85;2.13;;;20.50;99.90;;;;;;5054690;28;20127;-76
2023/09/30 11:41:22;;;;;;;10.23;2.75;;;20.50;99.90;;;;;;5054675;28;20064;-78
2023/09/30 11:44:04;;;;;;;7.30;1.60;;;20.40;99.90;;;;;;5053695;28;20060;-78
2023/09/30 11:46:33;;;;;;;6.53;1.50;;;20.40;99.90;;;;;;5054910;28;20127;-78
2023/09/30 11:49:04;;;;;;;9.77;2.00;;;20.30;99.90;;;;;;5052592;28;20045;-78
2023/09/30 11:51:47;;;;;;;6.85;1.50;;;20.30;99.90;;;;;;5053853;28;20127;-76
2023/09/30 11:54:14;;;;;;;8.23;1.88;;;20.40;99.90;;;;;;5035096;28;20434;-75
2023/09/30 11:56:43;;;;;;;9.48;2.05;;;20.40;99.90;;;;;;5036769;28;20049;-83
2023/09/30 11:59:11;;;;;;;9.98;2.38;;;20.60;99.90;;;;;;5054125;28;20037;-84
2023/09/30 12:01:38;;;;;;;6.15;1.80;;;20.70;99.90;;;;;;5054951;28;20132;-84
2023/09/30 12:04:05;;;;;;;7.22;2.15;;;20.70;99.90;;;;;;5053454;28;20049;-74
2023/09/30 12:06:31;;;;;;;9.85;2.53;;;20.70;99.90;;;;;;5036286;28;20041;-77
2023/09/30 12:08:57;;;;;;;9.15;1.92;;;20.70;99.90;;;;;;5053199;28;20059;-77
2023/09/30 12:11:23;;;;;;;7.32;1.70;;;20.80;99.90;;;;;;5052955;28;20056;-77
2023/09/30 12:13:50;;;;;;;12.90;2.40;;;20.70;99.90;;;;;;5050756;28;20060;-75
2023/09/30 12:16:16;;;;;;;11.95;1.80;;;20.50;99.90;;;;;;5045083;28;20056;-76
2023/09/30 12:18:42;;;;;;;11.32;2.22;;;20.40;99.90;;;;;;5045885;28;20071;-73
2023/09/30 12:21:10;;;;;;;5.82;2.00;;;20.10;99.90;;;;;;5054323;28;20424;-74
2023/09/30 12:23:37;;;;;;;10.20;1.90;;;19.90;99.90;;;;;;5055001;28;20048;-76
2023/09/30 12:26:05;;;;;;;6.25;1.42;;;19.70;99.90;;;;;;5052770;28;20041;-79
2023/09/30 12:28:32;;;;;;;9.88;1.55;;;19.50;99.90;;;;;;5048071;28;20060;-76
2023/09/30 12:31:04;;;;;;;6.68;1.50;;;19.30;99.90;;;;;;5050286;28;20057;-75
2023/09/30 12:33:33;;;;;;;6.22;1.60;;;19.20;99.90;;;;;;5047438;28;20041;-76
2023/09/30 12:35:59;;;;;;;12.55;1.80;;;19.10;99.90;;;;;;5037017;28;20084;-77
2023/09/30 12:38:26;;;;;;;10.02;1.83;;;19.00;99.90;;;;;;5034624;28;20041;-76
2023/09/30 12:40:53;;;;;;;6.97;1.70;;;19.00;99.90;;;;;;5030228;28;20045;-76
2023/09/30 12:43:19;;;;;;;8.60;1.67;;;18.90;99.90;;;;;;5035672;28;20049;-75
2023/09/30 12:45:46;;;;;;;8.50;1.60;;;18.80;99.90;;;;;;5053631;28;20507;-75
2023/09/30 12:48:12;;;;;;;5.68;1.33;;;18.80;99.90;;;;;;5051282;28;20049;-75
2023/09/30 12:50:39;;;;;;;6.07;1.42;;;18.80;99.90;;;;;;5047846;28;20049;-75
2023/09/30 12:53:05;;;;;;;8.10;1.42;;;18.80;99.90;;;;;;5033690;28;20504;-75
2023/09/30 12:55:30;;;;;;;8.10;1.42;;;18.90;99.90;;;;;;5033068;28;20046;-76
2023/09/30 12:58:02;;;;;;;8.98;1.67;;;18.90;99.90;;;;;;5045661;28;20044;-74
2023/09/30 13:00:30;;;;;;;10.40;1.77;;;18.90;99.90;;;;;;5049367;28;20396;-76
2023/09/30 13:03:01;;;;;;;6.13;1.48;;;19.00;99.90;;;;;;5046974;28;20057;-76
2023/09/30 13:05:29;;;;;;;15.13;2.03;;;19.00;99.90;;;;;;5027628;28;20045;-76
2023/09/30 13:07:56;;;;;;;6.88;1.40;;;19.00;99.90;;;;;;5047637;28;20136;-77
2023/09/30 13:10:22;;;;;;;9.13;1.60;;;19.10;99.90;;;;;;5025768;28;20163;-76
2023/09/30 13:12:49;;;;;;;6.78;1.42;;;19.20;99.90;;;;;;5032709;28;20072;-75
2023/09/30 13:15:16;;;;;;;8.40;1.67;;;19.30;99.90;;;;;;5043971;28;20169;-76
2023/09/30 13:17:43;;;;;;;7.70;1.77;;;19.30;99.90;;;;;;5044137;28;20072;-76
2023/09/30 13:20:11;;;;;;;7.70;2.08;;;19.50;99.90;;;;;;5040006;28;20056;-75
2023/09/30 13:22:40;;;;;;;7.40;1.92;;;19.60;99.90;;;;;;5052133;28;20053;-76
2023/09/30 13:25:12;;;;;;;8.73;1.73;;;19.70;99.90;;;;;;5046413;28;20060;-78
2023/09/30 13:27:43;;;;;;;9.52;1.90;;;19.70;99.90;;;;;;5032338;28;20049;-78
2023/09/30 13:30:08;;;;;;;12.52;1.88;;;19.70;99.90;;;;;;5050028;28;20049;-78
2023/09/30 13:32:38;;;;;;;7.50;1.50;;;19.60;99.90;;;;;;5040706;28;20508;-83
2023/09/30 13:35:05;;;;;;;6.38;1.35;;;19.60;99.90;;;;;;5044378;28;20068;-79
2023/09/30 13:37:36;;;;;;;8.63;1.65;;;19.60;99.90;;;;;;5050305;28;20366;-78
2023/09/30 13:40:08;;;;;;;9.68;1.67;;;19.60;99.90;;;;;;5029566;28;20053;-78
2023/09/30 13:42:37;;;;;;;8.52;1.50;;;19.50;99.90;;;;;;5049114;28;20571;-78
2023/09/30 13:45:03;;;;;;;7.70;1.80;;;19.40;99.90;;;;;;5048808;28;20041;-78
2023/09/30 13:47:29;;;;;;;7.80;1.70;;;19.40;99.90;;;;;;5032558;28;20045;-79
2023/09/30 13:49:55;;;;;;;7.53;1.73;;;19.40;99.90;;;;;;5032481;28;20115;-79
2023/09/30 13:52:21;;;;;;;8.25;1.40;;;19.40;99.90;;;;;;5016281;28;20103;-80
2023/09/30 13:54:47;;;;;;;7.88;1.67;;;19.40;99.90;;;;;;5039167;28;20198;-77
2023/09/30 13:57:14;;;;;;;6.95;1.58;;;19.50;99.90;;;;;;5040887;28;20507;-78
2023/09/30 13:59:41;;;;;;;8.02;1.52;;;19.60;99.90;;;;;;5042754;28;20053;-78
2023/09/30 14:02:14;;;;;;;6.57;1.50;;;19.70;99.90;;;;;;5045904;28;20586;-79
2023/09/30 14:04:41;;;;;;;5.38;1.38;;;19.90;99.90;;;;;;5047077;28;20044;-79
2023/09/30 14:07:10;;;;;;;5.72;1.23;;;20.00;99.90;;;;;;5050783;28;20381;-79
2023/09/30 14:09:36;;;;;;;7.30;1.25;;;20.10;99.90;;;;;;5052687;28;20131;-78
2023/09/30 14:12:04;;;;;;;7.18;1.52;;;20.10;99.90;;;;;;5046526;28;20687;-79
2023/09/30 14:14:33;;;;;;;11.00;1.60;;;20.10;99.90;;;;;;5005708;28;20462;-79
2023/09/30 14:17:09;;;;;;;8.23;1.40;;;20.10;99.90;;;;;;5045927;28;20055;-79
2023/09/30 14:19:38;;;;;;;8.32;1.80;;;20.00;99.90;;;;;;5034610;28;20068;-82
2023/09/30 14:22:05;;;;;;;6.80;1.52;;;19.90;99.90;;;;;;5050073;28;20052;-78
2023/09/30 14:24:33;;;;;;;8.48;1.67;;;19.80;99.90;;;;;;5030232;28;20096;-77
2023/09/30 14:26:59;;;;;;;9.27;1.63;;;19.70;99.90;;;;;;5048249;28;20049;-78
2023/09/30 14:29:25;;;;;;;9.60;1.60;;;19.70;99.90;;;;;;5051846;28;20044;-78
2023/09/30 14:31:52;;;;;;;6.30;1.10;;;19.60;99.90;;;;;;5049521;28;20094;-79
2023/09/30 14:34:20;;;;;;;6.38;1.30;;;19.60;99.90;;;;;;5031992;28;20081;-78
2023/09/30 14:36:51;;;;;;;8.70;1.80;;;19.60;99.90;;;;;;5050378;28;20049;-77
2023/09/30 14:39:17;;;;;;;10.23;2.05;;;19.60;99.90;;;;;;5029549;28;20531;-79
2023/09/30 14:41:44;;;;;;;6.32;1.70;;;19.60;99.90;;;;;;5049698;28;20392;-80
2023/09/30 14:44:11;;;;;;;8.63;1.80;;;19.70;99.90;;;;;;5032022;28;20485;-77
2023/09/30 14:46:39;;;;;;;9.38;1.70;;;19.70;99.90;;;;;;5042284;28;20041;-76
2023/09/30 14:49:06;;;;;;;9.40;1.77;;;19.70;99.90;;;;;;5019311;28;20409;-77
2023/09/30 14:51:34;;;;;;;6.60;1.65;;;19.70;99.90;;;;;;5040320;28;20417;-77
2023/09/30 14:54:09;;;;;;;5.07;1.20;;;19.70;99.90;;;;;;5052545;28;20550;-77
2023/09/30 14:56:35;;;;;;;9.32;1.98;;;19.70;99.90;;;;;;5053908;28;20389;-79
2023/09/30 14:59:03;;;;;;;8.00;1.92;;;19.70;99.90;;;;;;5051324;28;20064;-76
2023/09/30 15:01:29;;;;;;;7.97;1.65;;;19.60;99.90;;;;;;5052806;28;20045;-76
2023/09/30 15:03:59;;;;;;;6.95;1.77;;;19.60;99.90;;;;;;5049543;28;20106;-75
2023/09/30 15:06:24;;;;;;;6.75;1.70;;;19.60;99.90;;;;;;5049314;28;20115;-73
2023/09/30 15:08:51;;;;;;;8.85;1.58;;;19.60;99.90;;;;;;5031747;28;20399;-74
2023/09/30 15:11:16;;;;;;;7.25;1.85;;;19.50;99.90;;;;;;5053948;28;20451;-73
2023/09/30 15:13:44;;;;;;;8.00;1.30;;;19.50;99.90;;;;;;5047112;28;20091;-73
2023/09/30 15:16:18;;;;;;;7.95;2.30;;;19.40;99.90;;;;;;5053380;28;20053;-74
2023/09/30 15:18:46;;;;;;;6.32;1.60;;;19.40;99.90;;;;;;5050033;28;20061;-75
2023/09/30 15:21:14;;;;;;;5.63;1.48;;;19.30;99.90;;;;;;5047943;28;20523;-74
2023/09/30 15:23:42;;;;;;;11.10;2.08;;;19.30;99.90;;;;;;5049437;28;20037;-74
2023/09/30 15:26:10;;;;;;;5.65;1.65;;;19.30;99.90;;;;;;5054477;28;20091;-74
2023/09/30 15:28:37;;;;;;;6.53;1.98;;;19.30;99.90;;;;;;5050190;28;20519;-75
2023/09/30 15:31:07;;;;;;;9.13;1.63;;;19.30;99.90;;;;;;5048908;28;20041;-75
2023/09/30 15:33:36;;;;;;;7.63;1.58;;;19.20;99.90;;;;;;5047752;28;20045;-74
2023/09/30 15:36:19;;;;;;;7.65;1.67;;;19.20;99.90;;;;;;5053666;28;20072;-75
2023/09/30 15:38:46;;;;;;;6.40;1.70;;;19.10;99.90;;;;;;5053552;28;20033;-74
2023/09/30 15:41:13;;;;;;;9.13;1.83;;;19.00;99.90;;;;;;5053475;28;20072;-80
2023/09/30 15:43:40;;;;;;;8.48;1.75;;;19.00;99.90;;;;;;5054507;28;20080;-77
2023/09/30 15:46:09;;;;;;;8.50;1.90;;;18.90;99.90;;;;;;5031260;28;20049;-76
2023/09/30 15:48:36;;;;;;;7.13;1.73;;;18.90;99.90;;;;;;5046017;28;20492;-76
2023/09/30 15:51:02;;;;;;;9.85;1.92;;;18.90;99.90;;;;;;5049603;28;20041;-76
2023/09/30 15:53:28;;;;;;;5.43;1.70;;;18.80;99.90;;;;;;5030968;28;20126;-77
2023/09/30 15:55:54;;;;;;;6.03;1.70;;;18.80;99.90;;;;;;5034526;28;20051;-74
2023/09/30 15:58:24;;;;;;;10.07;2.47;;;18.70;99.90;;;;;;5044716;28;20052;-74
2023/09/30 16:00:53;;;;;;;6.00;1.73;;;18.70;99.90;;;;;;5052863;28;20131;-74
2023/09/30 16:03:21;;;;;;;7.82;1.75;;;18.70;99.90;;;;;;5039592;28;20175;-74
2023/09/30 16:05:48;;;;;;;9.38;2.10;;;18.60;99.90;;;;;;5051204;28;20455;-77
2023/09/30 16:08:14;;;;;;;6.57;1.85;;;18.60;99.90;;;;;;5052906;28;20049;-75
2023/09/30 16:10:40;;;;;;;7.53;1.80;;;18.60;99.90;;;;;;5042412;28;20052;-75
2023/09/30 16:13:09;;;;;;;8.88;2.15;;;18.60;99.90;;;;;;5024086;28;20073;-74
2023/09/30 16:15:39;;;;;;;7.95;2.63;;;18.50;99.90;;;;;;5050477;28;20519;-75
2023/09/30 16:18:06;;;;;;;11.55;3.20;;;18.50;99.90;;;;;;5050929;28;20052;-75
2023/09/30 16:20:32;;;;;;;7.68;2.60;;;18.50;99.90;;;;;;5053689;28;20496;-76
2023/09/30 16:22:58;;;;;;;8.32;2.30;;;18.50;99.90;;;;;;5052854;28;20052;-75
2023/09/30 16:25:24;;;;;;;9.05;2.22;;;18.50;99.90;;;;;;5054188;28;20041;-75
2023/09/30 16:27:52;;;;;;;7.03;2.40;;;18.40;99.90;;;;;;5035630;28;20049;-76
2023/09/30 16:30:21;;;;;;;7.25;2.10;;;18.40;99.90;;;;;;5037400;28;20435;-75
2023/09/30 16:32:50;;;;;;;11.98;2.58;;;18.40;99.90;;;;;;5049385;28;20040;-75
2023/09/30 16:35:17;;;;;;;7.03;2.50;;;18.40;99.90;;;;;;5033722;28;20496;-74
2023/09/30 16:37:44;;;;;;;5.43;2.28;;;18.40;99.90;;;;;;5051169;28;20095;-75
2023/09/30 16:40:11;;;;;;;8.23;2.50;;;18.40;99.90;;;;;;5005101;28;20045;-75
2023/09/30 16:42:41;;;;;;;6.35;1.67;;;18.30;99.90;;;;;;5034934;28;20068;-74
2023/09/30 16:45:10;;;;;;;7.65;2.08;;;18.30;99.90;;;;;;5050230;28;20045;-75
2023/09/30 16:47:45;;;;;;;7.90;2.33;;;18.30;99.90;;;;;;5044109;28;20047;-74
2023/09/30 16:50:16;;;;;;;6.55;1.70;;;18.30;99.90;;;;;;5053793;28;20045;-75
2023/09/30 16:52:43;;;;;;;6.03;2.00;;;18.20;99.90;;;;;;5053060;28;20068;-74
2023/09/30 16:55:11;;;;;;;7.70;2.22;;;18.20;99.90;;;;;;5049564;28;21577;-74
2023/09/30 16:57:40;;;;;;;7.35;2.53;;;18.20;99.90;;;;;;5043956;28;20718;-75
2023/09/30 17:00:11;;;;;;;9.85;2.20;;;18.10;99.90;;;;;;5020263;28;20128;-75
2023/09/30 17:02:37;;;;;;;7.38;2.15;;;18.10;99.90;;;;;;5016928;28;20125;-74
2023/09/30 17:05:05;;;;;;;6.80;2.25;;;18.10;99.90;;;;;;5040713;28;20128;-75
2023/09/30 17:07:35;;;;;;;8.82;2.97;;;18.00;99.90;;;;;;5040258;28;20632;-75
2023/09/30 17:10:06;;;;;;;7.85;3.17;;;18.00;99.90;;;;;;5026046;28;20140;-75
2023/09/30 17:12:31;;;;;;;9.52;2.58;;;18.00;99.90;;;;;;5029772;28;20435;-75
2023/09/30 17:14:59;;;;;;;5.68;2.15;;;17.90;99.90;;;;;;5030531;28;20538;-75
2023/09/30 17:17:27;;;;;;;10.20;3.17;;;17.90;99.90;;;;;;5050850;28;20048;-76
2023/09/30 17:19:53;;;;;;;11.75;2.83;;;17.90;99.90;;;;;;5033956;28;20135;-76
2023/09/30 17:22:19;;;;;;;7.35;2.20;;;17.90;99.90;;;;;;5050798;28;20061;-76
2023/09/30 17:24:48;;;;;;;6.03;2.22;;;17.80;99.90;;;;;;5053416;28;20049;-75
2023/09/30 17:27:14;;;;;;;13.10;2.80;;;17.80;99.90;;;;;;5051226;28;20454;-75
2023/09/30 17:29:40;;;;;;;8.48;2.75;;;17.70;99.90;;;;;;5046315;28;20045;-74
2023/09/30 17:32:06;;;;;;;6.13;2.17;;;17.70;99.90;;;;;;5052904;28;20500;-74
2023/09/30 17:34:37;;;;;;;6.45;3.25;;;17.60;99.90;;;;;;5050907;28;20051;-74
2023/09/30 17:37:03;;;;;;;8.52;3.47;;;17.60;99.90;;;;;;5044522;28;20049;-74
2023/09/30 17:39:30;;;;;;;6.80;2.95;;;17.60;99.90;;;;;;5032192;28;20056;-74
2023/09/30 17:41:57;;;;;;;5.88;1.98;;;17.50;99.90;;;;;;5040797;28;20053;-74
2023/09/30 17:44:22;;;;;;;7.53;3.85;;;17.40;99.90;;;;;;5052124;28;20123;-74
2023/09/30 17:46:48;;;;;;;7.75;2.53;;;17.50;99.90;;;;;;5052634;28;20127;-73
2023/09/30 17:49:14;;;;;;;7.60;3.33;;;17.50;99.90;;;;;;5060489;28;20048;-73
2023/09/30 17:51:42;;;;;;;7.68;3.40;;;17.40;99.90;;;;;;5044005;28;20053;-73
2023/09/30 17:54:09;;;;;;;10.02;3.70;;;17.40;99.90;;;;;;5036946;28;20452;-74
2023/09/30 17:56:37;;;;;;;8.68;3.58;;;17.40;99.90;;;;;;5049169;28;20055;-73
2023/09/30 17:59:02;;;;;;;8.90;3.38;;;17.30;99.90;;;;;;5028400;28;20508;-76
2023/09/30 18:01:29;;;;;;;9.45;3.50;;;17.30;99.90;;;;;;5033114;28;20037;-75
2023/09/30 18:03:55;;;;;;;8.75;2.33;;;17.30;99.90;;;;;;5042350;28;20481;-73
2023/09/30 18:06:21;;;;;;;8.25;2.60;;;17.30;99.90;;;;;;5052043;28;20051;-73
2023/09/30 18:08:47;;;;;;;6.93;2.53;;;17.30;99.90;;;;;;5022007;28;20083;-74
2023/09/30 18:11:13;;;;;;;7.32;2.58;;;17.20;99.90;;;;;;5036961;28;20055;-75
2023/09/30 18:13:40;;;;;;;6.68;2.75;;;17.20;99.90;;;;;;5032997;28;20064;-75
2023/09/30 18:16:08;;;;;;;6.80;2.25;;;17.20;99.90;;;;;;5046798;28;20053;-72
2023/09/30 18:18:37;;;;;;;10.40;3.90;;;17.10;99.90;;;;;;5050818;28;20055;-72
2023/09/30 18:21:04;;;;;;;9.88;3.20;;;17.10;99.90;;;;;;5033712;28;20064;-73
2023/09/30 18:23:30;;;;;;;8.50;3.22;;;17.10;99.90;;;;;;5046816;28;20106;-74
2023/09/30 18:25:58;;;;;;;10.52;2.42;;;17.10;99.90;;;;;;5050242;28;20439;-73
2023/09/30 18:28:26;;;;;;;8.77;2.78;;;17.10;99.90;;;;;;5028043;28;20108;-74
2023/09/30 18:30:52;;;;;;;7.30;2.78;;;17.10;99.90;;;;;;5048726;28;20049;-73
2023/09/30 18:33:18;;;;;;;6.32;2.30;;;17.00;99.90;;;;;;5049461;28;20045;-72
2023/09/30 18:35:44;;;;;;;10.75;3.17;;;17.00;99.90;;;;;;5030591;28;20423;-73
2023/09/30 18:38:10;;;;;;;7.72;3.75;;;17.00;99.90;;;;;;5027148;28;20037;-73
2023/09/30 18:40:37;;;;;;;6.70;3.03;;;17.00;99.90;;;;;;5044949;28;20471;-73
2023/09/30 18:43:13;;;;;;;11.73;4.03;;;17.00;99.90;;;;;;5037798;28;20152;-74
2023/09/30 18:45:44;;;;;;;7.88;3.42;;;16.90;99.90;;;;;;5044080;28;20132;-73
2023/09/30 18:48:10;;;;;;;9.07;3.53;;;16.90;99.90;;;;;;5045186;28;20049;-72
2023/09/30 18:50:46;;;;;;;7.93;3.22;;;16.90;99.90;;;;;;5048370;28;20048;-72
2023/09/30 18:53:12;;;;;;;8.48;3.40;;;16.90;99.90;;;;;;5036809;28;20076;-72
2023/09/30 18:55:47;;;;;;;9.48;3.50;;;16.90;99.90;;;;;;5050896;28;20076;-73
2023/09/30 18:58:14;;;;;;;9.20;3.25;;;16.80;99.90;;;;;;5048271;28;20504;-71
2023/09/30 19:00:46;;;;;;;7.38;2.78;;;16.80;99.90;;;;;;5047206;28;20512;-74
2023/09/30 19:03:12;;;;;;;11.70;3.08;;;16.70;99.90;;;;;;5031196;28;20120;-72
2023/09/30 19:05:39;;;;;;;11.85;2.83;;;16.70;99.90;;;;;;5035003;28;20323;-72
2023/09/30 19:08:07;;;;;;;10.13;2.75;;;16.60;99.90;;;;;;5050159;28;20049;-73